Time;durP1;ratioP1;P1;durP2;ratioP2;P2;SDS_P1;SDS_P2;PMS_P1;PMS_P2;Temp;Humidity;BMP_temperature;BMP_pressure;BME280_temperature;BME280_humidity;BME280_pressure;Samples;Min_cycle;Max_cycle;Signal;HPM_P1;HPM_P2
2021/08/21 00:01:09;;;;;;;2.95;1.83;;;16.70;92.30;;;;;;5068536;28;20021;-81
2021/08/21 00:03:36;;;;;;;2.42;1.63;;;16.70;92.20;;;;;;5053057;28;20036;-81
2021/08/21 00:06:01;;;;;;;5.00;2.05;;;16.60;92.20;;;;;;5052688;28;20087;-81
2021/08/21 00:08:27;;;;;;;1.73;1.40;;;16.60;92.20;;;;;;5051732;28;20060;-81
2021/08/21 00:10:52;;;;;;;2.42;1.95;;;16.60;92.20;;;;;;5068493;28;20503;-81
2021/08/21 00:13:18;;;;;;;3.25;1.90;;;16.60;92.20;;;;;;5052965;28;20017;-80
2021/08/21 00:15:43;;;;;;;2.50;1.90;;;16.60;92.20;;;;;;5052966;28;20424;-80
2021/08/21 00:18:09;;;;;;;3.55;2.28;;;16.50;92.30;;;;;;5052760;28;20120;-78
2021/08/21 00:20:35;;;;;;;3.10;2.38;;;16.60;92.30;;;;;;5052533;28;20052;-78
2021/08/21 00:23:00;;;;;;;2.70;2.15;;;16.50;92.20;;;;;;5052788;28;20462;-81
2021/08/21 00:25:26;;;;;;;3.13;2.47;;;16.50;92.20;;;;;;5052805;28;20465;-80
2021/08/21 00:27:51;;;;;;;3.33;1.98;;;16.50;92.20;;;;;;5052703;28;20469;-81
2021/08/21 00:30:17;;;;;;;3.55;2.45;;;16.50;92.20;;;;;;5068236;28;20500;-78
2021/08/21 00:32:42;;;;;;;3.60;2.58;;;16.50;92.20;;;;;;5052890;28;20017;-79
2021/08/21 00:35:10;;;;;;;4.38;2.40;;;16.40;92.20;;;;;;5052402;28;20187;-79
2021/08/21 00:37:35;;;;;;;4.10;2.25;;;16.40;92.20;;;;;;5052097;28;20074;-78
2021/08/21 00:40:01;;;;;;;3.22;2.50;;;16.40;92.20;;;;;;5056435;28;20025;-79
2021/08/21 00:42:26;;;;;;;4.05;2.40;;;16.40;92.20;;;;;;5056476;28;20021;-79
2021/08/21 00:44:52;;;;;;;3.50;2.38;;;16.40;92.20;;;;;;5056440;28;20033;-79
2021/08/21 00:47:19;;;;;;;4.18;2.35;;;16.40;92.20;;;;;;5056474;28;20374;-80
2021/08/21 00:49:47;;;;;;;4.20;2.53;;;16.30;92.20;;;;;;5055792;28;20047;-81
2021/08/21 00:52:22;;;;;;;4.30;2.47;;;16.30;92.20;;;;;;5056225;28;20083;-81
2021/08/21 00:54:48;;;;;;;4.10;2.88;;;16.30;92.20;;;;;;5056315;28;20436;-80
2021/08/21 00:57:16;;;;;;;3.33;2.50;;;16.30;92.30;;;;;;5056216;28;20061;-82
2021/08/21 00:59:44;;;;;;;3.63;2.70;;;16.20;92.30;;;;;;5056067;28;20029;-81
2021/08/21 01:02:11;;;;;;;4.10;2.70;;;16.20;92.30;;;;;;5056030;28;20573;-81
2021/08/21 01:04:38;;;;;;;3.60;2.38;;;16.20;92.40;;;;;;5055479;28;20478;-79
2021/08/21 01:07:05;;;;;;;3.97;2.20;;;16.10;92.40;;;;;;5054832;28;20025;-81
2021/08/21 01:09:31;;;;;;;3.85;2.20;;;16.10;92.40;;;;;;5055854;28;20098;-79
2021/08/21 01:11:57;;;;;;;4.00;2.78;;;16.00;92.40;;;;;;5055949;28;20466;-81
2021/08/21 01:14:26;;;;;;;3.83;2.50;;;16.10;92.40;;;;;;5055782;28;20121;-82
2021/08/21 01:16:52;;;;;;;4.20;2.78;;;16.00;92.40;;;;;;5053907;28;20041;-82
2021/08/21 01:19:19;;;;;;;4.22;2.72;;;16.00;92.40;;;;;;5055626;28;20492;-82
2021/08/21 01:21:45;;;;;;;3.08;2.30;;;16.00;92.40;;;;;;5055658;28;20025;-81
2021/08/21 01:24:11;;;;;;;5.03;3.13;;;16.00;92.40;;;;;;5055555;28;20090;-79
2021/08/21 01:26:50;;;;;;;4.28;3.22;;;16.00;92.40;;;;;;5055699;28;20032;-79
2021/08/21 01:29:16;;;;;;;3.72;2.55;;;16.00;92.30;;;;;;5055712;28;20151;-79
2021/08/21 01:31:41;;;;;;;3.58;2.70;;;16.00;92.40;;;;;;5055182;28;20096;-81
2021/08/21 01:34:07;;;;;;;2.50;2.10;;;16.00;92.30;;;;;;5055438;28;20100;-81
2021/08/21 01:36:44;;;;;;;4.03;2.85;;;16.00;92.40;;;;;;5055464;28;20486;-82
2021/08/21 01:39:10;;;;;;;4.68;2.95;;;16.00;92.30;;;;;;5055444;28;20053;-81
2021/08/21 01:41:36;;;;;;;4.00;2.28;;;16.00;92.40;;;;;;5055429;28;20026;-81
2021/08/21 01:44:07;;;;;;;4.47;3.08;;;15.90;92.30;;;;;;5055197;28;20535;-81
2021/08/21 01:46:32;;;;;;;5.05;2.75;;;15.90;92.30;;;;;;5054874;28;20088;-79
2021/08/21 01:49:00;;;;;;;4.15;2.65;;;15.90;92.30;;;;;;5053567;28;20152;-81
2021/08/21 01:51:26;;;;;;;4.70;2.97;;;15.90;92.30;;;;;;5070338;28;20017;-81
2021/08/21 01:53:52;;;;;;;3.40;2.65;;;15.90;92.40;;;;;;5055092;28;20035;-79
2021/08/21 01:56:17;;;;;;;4.82;3.28;;;15.90;92.40;;;;;;5055232;28;20021;-81
2021/08/21 01:58:43;;;;;;;3.88;3.15;;;15.80;92.40;;;;;;5055080;28;20087;-82
2021/08/21 02:01:08;;;;;;;5.03;3.10;;;15.80;92.40;;;;;;5053239;28;20031;-81
2021/08/21 02:03:34;;;;;;;3.45;2.60;;;15.80;92.50;;;;;;5054729;28;20037;-81
2021/08/21 02:05:59;;;;;;;3.97;2.42;;;15.80;92.40;;;;;;5054856;28;20029;-81
2021/08/21 02:08:25;;;;;;;3.55;2.60;;;15.80;92.40;;;;;;5070330;28;20049;-79
2021/08/21 02:10:50;;;;;;;3.47;2.30;;;15.80;92.40;;;;;;5054757;28;20029;-78
2021/08/21 02:13:16;;;;;;;3.55;2.33;;;15.80;92.30;;;;;;5054767;28;20100;-79
2021/08/21 02:15:41;;;;;;;4.15;2.95;;;15.80;92.30;;;;;;5054214;28;20096;-78
2021/08/21 02:18:07;;;;;;;3.20;2.47;;;15.80;92.30;;;;;;5054689;28;20053;-81
2021/08/21 02:20:33;;;;;;;2.35;1.90;;;15.80;92.30;;;;;;5054539;28;20370;-81
2021/08/21 02:22:58;;;;;;;4.38;3.03;;;15.80;92.30;;;;;;5069894;28;20028;-81
2021/08/21 02:25:24;;;;;;;4.05;2.42;;;15.70;92.30;;;;;;5069843;28;20037;-79
2021/08/21 02:27:57;;;;;;;4.30;2.90;;;15.70;92.30;;;;;;5054265;28;20031;-81
2021/08/21 02:30:22;;;;;;;4.90;2.80;;;15.70;92.30;;;;;;5054089;28;20017;-81
2021/08/21 02:32:49;;;;;;;4.80;3.08;;;15.70;92.30;;;;;;5069566;28;20427;-81
2021/08/21 02:35:14;;;;;;;4.38;3.08;;;15.70;92.40;;;;;;5054368;28;20095;-81
2021/08/21 02:37:40;;;;;;;4.50;2.92;;;15.70;92.50;;;;;;5054305;28;20473;-81
2021/08/21 02:40:06;;;;;;;6.15;3.47;;;15.60;92.50;;;;;;5054266;28;20021;-81
2021/08/21 02:42:32;;;;;;;4.20;2.95;;;15.60;92.50;;;;;;5054092;28;20028;-81
2021/08/21 02:44:57;;;;;;;4.85;2.50;;;15.60;92.50;;;;;;5052291;28;20036;-81
2021/08/21 02:47:23;;;;;;;5.35;3.50;;;15.60;92.50;;;;;;5052829;28;20052;-81
2021/08/21 02:49:48;;;;;;;6.32;3.70;;;15.60;92.50;;;;;;5069405;28;20086;-80
2021/08/21 02:52:14;;;;;;;4.80;2.72;;;15.60;92.50;;;;;;5054149;28;20029;-79
2021/08/21 02:54:39;;;;;;;5.20;2.90;;;15.70;92.50;;;;;;5052790;28;20124;-78
2021/08/21 02:57:05;;;;;;;5.93;3.22;;;15.60;92.50;;;;;;5052633;28;20013;-78
2021/08/21 02:59:30;;;;;;;5.63;3.03;;;15.60;92.60;;;;;;5053514;28;20104;-81
2021/08/21 03:01:56;;;;;;;4.75;2.88;;;15.60;92.60;;;;;;5052965;28;20024;-81
2021/08/21 03:04:21;;;;;;;4.50;2.80;;;15.60;92.60;;;;;;5053772;28;20445;-81
2021/08/21 03:06:47;;;;;;;4.22;3.03;;;15.60;92.60;;;;;;5053656;28;20024;-81
2021/08/21 03:09:12;;;;;;;4.82;2.95;;;15.60;92.60;;;;;;5069043;28;20021;-81
2021/08/21 03:11:38;;;;;;;4.47;2.65;;;15.60;92.50;;;;;;5053667;28;20025;-81
2021/08/21 03:14:03;;;;;;;4.00;2.42;;;15.60;92.50;;;;;;5053322;28;20036;-79
2021/08/21 03:16:29;;;;;;;3.70;2.08;;;15.70;92.50;;;;;;5053193;28;20477;-78
2021/08/21 03:18:54;;;;;;;2.88;2.10;;;15.70;92.50;;;;;;5053581;28;20033;-81
2021/08/21 03:21:20;;;;;;;3.67;2.33;;;15.80;92.40;;;;;;5068818;28;20032;-81
2021/08/21 03:23:45;;;;;;;3.80;2.78;;;15.80;92.30;;;;;;5053643;28;20032;-81
2021/08/21 03:26:12;;;;;;;3.53;2.28;;;15.90;92.30;;;;;;5053401;28;20025;-81
2021/08/21 03:28:38;;;;;;;5.20;2.95;;;16.00;92.20;;;;;;5052824;28;20017;-81
2021/08/21 03:31:03;;;;;;;4.75;2.78;;;16.00;92.10;;;;;;5068846;28;20021;-81
2021/08/21 03:33:29;;;;;;;4.05;3.05;;;16.10;92.20;;;;;;5053368;28;20074;-81
2021/08/21 03:35:54;;;;;;;4.28;2.83;;;16.10;92.10;;;;;;5053394;28;20090;-80
2021/08/21 03:38:20;;;;;;;3.65;2.65;;;16.10;92.10;;;;;;5068876;28;20028;-81
2021/08/21 03:40:46;;;;;;;5.00;3.45;;;16.20;92.20;;;;;;5053229;28;20436;-79
2021/08/21 03:43:12;;;;;;;3.95;2.53;;;16.10;92.20;;;;;;5052918;28;20021;-81
2021/08/21 03:45:40;;;;;;;3.88;2.63;;;16.10;92.30;;;;;;5053268;28;20029;-81
2021/08/21 03:48:10;;;;;;;6.90;3.67;;;16.10;92.30;;;;;;5053315;28;20028;-79
2021/08/21 03:50:35;;;;;;;4.15;2.85;;;16.10;92.40;;;;;;5053260;28;20477;-81
2021/08/21 03:53:01;;;;;;;4.22;2.78;;;16.10;92.40;;;;;;5053084;28;20053;-81
2021/08/21 03:55:26;;;;;;;4.00;2.92;;;16.10;92.40;;;;;;5068625;28;20075;-80
2021/08/21 03:57:52;;;;;;;5.93;3.53;;;16.10;92.40;;;;;;5052703;28;20377;-78
2021/08/21 04:00:18;;;;;;;4.72;3.08;;;16.10;92.40;;;;;;5053039;28;20100;-81
2021/08/21 04:02:43;;;;;;;3.63;2.60;;;16.10;92.40;;;;;;5051817;28;20021;-81
2021/08/21 04:05:09;;;;;;;4.65;2.85;;;16.10;92.50;;;;;;5051854;28;20553;-79
2021/08/21 04:07:34;;;;;;;4.82;3.00;;;16.10;92.40;;;;;;5051799;28;20025;-81
2021/08/21 04:10:00;;;;;;;4.03;2.97;;;16.10;92.40;;;;;;5068456;28;20021;-81
2021/08/21 04:12:25;;;;;;;4.05;2.97;;;16.20;92.40;;;;;;5053011;28;20014;-81
2021/08/21 04:14:51;;;;;;;4.82;3.53;;;16.20;92.40;;;;;;5056875;28;20551;-80
2021/08/21 04:17:16;;;;;;;4.88;3.00;;;16.20;92.40;;;;;;5056737;28;20076;-78
2021/08/21 04:19:42;;;;;;;4.22;2.95;;;16.30;92.40;;;;;;5057317;28;20021;-78
2021/08/21 04:22:07;;;;;;;4.63;2.63;;;16.30;92.30;;;;;;5056797;28;20029;-81
2021/08/21 04:24:33;;;;;;;4.43;2.85;;;16.40;92.30;;;;;;5056820;28;20029;-81
2021/08/21 04:26:58;;;;;;;3.63;2.60;;;16.40;92.30;;;;;;5071753;28;20032;-81
2021/08/21 04:29:24;;;;;;;4.28;2.60;;;16.50;92.30;;;;;;5055485;28;20052;-80
2021/08/21 04:31:49;;;;;;;4.75;2.60;;;16.60;92.30;;;;;;5056719;28;20450;-80
2021/08/21 04:34:15;;;;;;;3.33;2.47;;;16.60;92.30;;;;;;5072015;28;20032;-81
2021/08/21 04:36:40;;;;;;;6.07;3.33;;;16.70;92.30;;;;;;5056534;28;20104;-81
2021/08/21 04:39:06;;;;;;;4.53;2.92;;;16.70;92.20;;;;;;5056491;28;20103;-81
2021/08/21 04:41:31;;;;;;;5.70;2.95;;;16.70;92.20;;;;;;5056042;28;20021;-81
2021/08/21 04:43:57;;;;;;;4.03;2.88;;;16.70;92.20;;;;;;5071839;28;20028;-80
2021/08/21 04:46:23;;;;;;;3.28;2.60;;;16.70;92.20;;;;;;5056446;28;20378;-81
2021/08/21 04:48:48;;;;;;;3.90;2.58;;;16.70;92.20;;;;;;5056492;28;20023;-81
2021/08/21 04:51:14;;;;;;;4.60;2.75;;;16.70;92.20;;;;;;5055049;28;20028;-81
2021/08/21 04:53:39;;;;;;;4.22;2.70;;;16.70;92.20;;;;;;5056265;28;20083;-80
2021/08/21 04:56:06;;;;;;;4.70;2.55;;;16.70;92.20;;;;;;5055872;28;20044;-80
2021/08/21 04:58:31;;;;;;;3.85;2.08;;;16.80;92.30;;;;;;5071570;28;20063;-81
2021/08/21 05:00:57;;;;;;;2.85;2.03;;;16.80;92.20;;;;;;5056257;28;20429;-80
2021/08/21 05:03:22;;;;;;;2.33;1.52;;;16.80;92.20;;;;;;5071374;28;20031;-80
2021/08/21 05:05:48;;;;;;;3.53;1.85;;;16.70;92.20;;;;;;5056124;28;20195;-80
2021/08/21 05:08:15;;;;;;;3.70;1.70;;;16.80;92.20;;;;;;5056070;28;20053;-80
2021/08/21 05:10:40;;;;;;;3.72;2.05;;;16.80;92.20;;;;;;5070888;28;20023;-80
2021/08/21 05:13:06;;;;;;;3.55;1.95;;;16.90;92.20;;;;;;5055793;28;20025;-80
2021/08/21 05:15:33;;;;;;;2.70;2.22;;;16.90;92.10;;;;;;5054490;28;20384;-80
2021/08/21 05:18:00;;;;;;;3.47;2.08;;;16.90;92.10;;;;;;5071131;28;20040;-80
2021/08/21 05:20:30;;;;;;;2.25;1.85;;;16.90;92.10;;;;;;5055797;28;20017;-81
2021/08/21 05:23:13;;;;;;;4.43;2.25;;;16.90;92.00;;;;;;5055852;28;20017;-80
2021/08/21 05:25:41;;;;;;;2.72;2.05;;;16.90;92.30;;;;;;5054235;28;20059;-80
2021/08/21 05:28:08;;;;;;;2.72;1.80;;;17.00;92.10;;;;;;5055664;28;20014;-81
2021/08/21 05:30:35;;;;;;;3.30;2.20;;;17.00;92.10;;;;;;5055692;28;20475;-81
2021/08/21 05:33:00;;;;;;;3.70;1.95;;;17.00;92.00;;;;;;5055666;28;20032;-82
2021/08/21 05:35:26;;;;;;;3.55;2.25;;;17.10;92.00;;;;;;5055539;28;20390;-79
2021/08/21 05:37:52;;;;;;;2.47;1.98;;;17.10;92.00;;;;;;5054969;28;20496;-78
2021/08/21 05:40:17;;;;;;;3.38;2.10;;;17.10;91.90;;;;;;5055538;28;20488;-78
2021/08/21 05:42:43;;;;;;;3.63;2.28;;;17.10;91.90;;;;;;5070768;28;20029;-78
2021/08/21 05:45:09;;;;;;;3.05;2.13;;;17.10;92.00;;;;;;5055389;28;20059;-78
2021/08/21 05:47:35;;;;;;;4.38;2.78;;;17.10;92.00;;;;;;5055234;28;20389;-78
2021/08/21 05:50:01;;;;;;;4.70;2.92;;;17.20;92.00;;;;;;5055272;28;20021;-78
2021/08/21 05:52:27;;;;;;;3.83;2.17;;;17.20;92.00;;;;;;5054865;28;20067;-78
2021/08/21 05:54:53;;;;;;;3.03;2.17;;;17.30;92.10;;;;;;5055037;28;20033;-77
2021/08/21 05:57:19;;;;;;;3.67;2.85;;;17.30;92.00;;;;;;5055072;28;20048;-78
2021/08/21 05:59:44;;;;;;;4.10;2.72;;;17.30;92.00;;;;;;5055046;28;20028;-86
2021/08/21 06:02:10;;;;;;;3.50;2.53;;;17.40;92.00;;;;;;5054982;28;20023;-78
2021/08/21 06:04:35;;;;;;;4.18;2.38;;;17.40;92.00;;;;;;5054886;28;20031;-78
2021/08/21 06:07:01;;;;;;;4.15;2.40;;;17.50;92.10;;;;;;5054394;28;20029;-78
2021/08/21 06:09:27;;;;;;;3.92;2.33;;;17.60;92.00;;;;;;5054728;28;20067;-78
2021/08/21 06:11:52;;;;;;;3.58;2.08;;;17.70;92.10;;;;;;5054802;28;20035;-78
2021/08/21 06:14:18;;;;;;;2.92;2.13;;;17.80;91.90;;;;;;5054756;28;20037;-78
2021/08/21 06:16:44;;;;;;;3.05;1.90;;;17.80;91.80;;;;;;5054579;28;20065;-76
2021/08/21 06:19:09;;;;;;;3.92;2.60;;;17.90;91.70;;;;;;5054665;28;20595;-80
2021/08/21 06:21:35;;;;;;;4.03;2.33;;;18.00;91.70;;;;;;5054241;28;20067;-78
2021/08/21 06:24:00;;;;;;;3.92;2.13;;;18.10;91.70;;;;;;5054709;28;20060;-78
2021/08/21 06:26:26;;;;;;;3.42;2.10;;;18.10;91.70;;;;;;5054493;28;20462;-79
2021/08/21 06:28:52;;;;;;;1.98;1.63;;;18.20;91.60;;;;;;5054564;28;20040;-78
2021/08/21 06:31:17;;;;;;;2.90;1.70;;;18.30;91.60;;;;;;5054436;28;20028;-79
2021/08/21 06:33:42;;;;;;;3.25;2.20;;;18.40;91.60;;;;;;5054349;28;20031;-78
2021/08/21 06:36:08;;;;;;;2.80;2.10;;;18.40;91.60;;;;;;5053637;28;20032;-79
2021/08/21 06:38:34;;;;;;;3.90;2.60;;;18.50;91.60;;;;;;5054329;28;20500;-78
2021/08/21 06:41:00;;;;;;;5.25;2.63;;;18.50;91.60;;;;;;5054200;28;20031;-79
2021/08/21 06:43:25;;;;;;;4.35;2.55;;;18.60;91.60;;;;;;5054237;28;20013;-78
2021/08/21 06:45:51;;;;;;;3.15;2.22;;;18.60;91.60;;;;;;5054160;28;20491;-79
2021/08/21 06:48:16;;;;;;;4.80;2.85;;;18.60;91.60;;;;;;5054028;28;20033;-79
2021/08/21 06:50:43;;;;;;;3.92;2.78;;;18.70;91.70;;;;;;5053735;28;20378;-79
2021/08/21 06:53:09;;;;;;;2.25;1.70;;;18.70;91.70;;;;;;5069328;28;20029;-79
2021/08/21 06:55:35;;;;;;;5.40;2.90;;;18.70;91.70;;;;;;5053843;28;20036;-78
2021/08/21 06:58:00;;;;;;;3.55;2.40;;;18.70;91.70;;;;;;5053935;28;20044;-78
2021/08/21 07:00:26;;;;;;;3.35;2.40;;;18.80;91.70;;;;;;5053849;28;20025;-78
2021/08/21 07:02:51;;;;;;;4.63;2.92;;;18.80;91.70;;;;;;5069230;28;20025;-79
2021/08/21 07:05:16;;;;;;;4.75;2.65;;;18.90;91.60;;;;;;5053406;28;20489;-78
2021/08/21 07:07:42;;;;;;;4.97;2.17;;;18.80;91.60;;;;;;5053802;28;20104;-79
2021/08/21 07:10:08;;;;;;;2.72;2.08;;;18.90;91.70;;;;;;5053675;28;20020;-79
2021/08/21 07:12:34;;;;;;;3.83;2.42;;;18.90;91.60;;;;;;5053660;28;20025;-79
2021/08/21 07:14:59;;;;;;;2.90;1.75;;;18.90;91.60;;;;;;5052280;28;20052;-79
2021/08/21 07:17:25;;;;;;;3.10;2.72;;;19.00;91.60;;;;;;5053513;28;20052;-79
2021/08/21 07:19:50;;;;;;;2.35;1.80;;;19.00;91.60;;;;;;5053151;28;20052;-79
2021/08/21 07:22:16;;;;;;;3.05;2.17;;;19.10;91.60;;;;;;5053352;28;20045;-78
2021/08/21 07:24:41;;;;;;;2.60;1.80;;;19.20;91.50;;;;;;5053471;28;20029;-77
2021/08/21 07:27:07;;;;;;;2.15;1.58;;;19.30;91.50;;;;;;5053456;28;20028;-77
2021/08/21 07:29:32;;;;;;;2.95;1.92;;;19.30;91.40;;;;;;5053413;28;20025;-77
2021/08/21 07:31:58;;;;;;;2.90;1.65;;;19.40;91.40;;;;;;5053556;28;20109;-77
2021/08/21 07:34:24;;;;;;;1.33;1.17;;;19.40;91.60;;;;;;5052817;28;20120;-77
2021/08/21 07:36:50;;;;;;;2.33;2.13;;;19.40;91.40;;;;;;5052056;28;20059;-77
2021/08/21 07:39:15;;;;;;;2.38;1.60;;;19.40;91.40;;;;;;5053348;28;20415;-77
2021/08/21 07:41:41;;;;;;;2.65;1.75;;;19.50;91.40;;;;;;5053215;28;20025;-77
2021/08/21 07:44:06;;;;;;;2.83;1.75;;;19.40;91.40;;;;;;5068758;28;20017;-78
2021/08/21 07:46:32;;;;;;;2.15;1.50;;;19.40;91.50;;;;;;5053205;28;20385;-77
2021/08/21 07:48:57;;;;;;;2.20;1.45;;;19.50;91.50;;;;;;5052430;28;20024;-77
2021/08/21 07:51:23;;;;;;;2.15;1.50;;;19.50;91.50;;;;;;5051994;28;20163;-77
2021/08/21 07:53:49;;;;;;;2.83;1.67;;;19.60;91.40;;;;;;5053060;28;20053;-77
2021/08/21 07:56:14;;;;;;;1.38;1.27;;;19.60;91.40;;;;;;5053168;28;20478;-77
2021/08/21 07:58:40;;;;;;;2.40;1.27;;;19.70;91.40;;;;;;5053144;28;20512;-77
2021/08/21 08:01:05;;;;;;;2.13;1.42;;;19.80;91.40;;;;;;5053004;28;20033;-77
2021/08/21 08:03:31;;;;;;;2.65;1.70;;;20.00;91.30;;;;;;5052733;28;20021;-78
2021/08/21 08:05:56;;;;;;;2.05;1.55;;;20.20;91.10;;;;;;5052930;28;20429;-78
2021/08/21 08:08:23;;;;;;;2.38;1.35;;;20.40;91.00;;;;;;5053127;28;20083;-78
2021/08/21 08:10:50;;;;;;;2.05;1.40;;;20.50;91.00;;;;;;5053054;28;20017;-77
2021/08/21 08:13:15;;;;;;;1.20;1.10;;;20.70;90.80;;;;;;5051609;28;20481;-78
2021/08/21 08:15:42;;;;;;;1.85;1.30;;;20.90;90.70;;;;;;5052812;28;20032;-77
2021/08/21 08:18:08;;;;;;;1.95;1.40;;;20.90;90.70;;;;;;5052313;28;20041;-77
2021/08/21 08:20:34;;;;;;;2.85;1.50;;;21.00;90.80;;;;;;5052915;28;20032;-76
2021/08/21 08:22:59;;;;;;;2.40;1.77;;;21.10;90.80;;;;;;5052952;28;20481;-79
2021/08/21 08:25:25;;;;;;;2.38;1.75;;;21.20;90.70;;;;;;5052762;28;20025;-78
2021/08/21 08:27:51;;;;;;;1.45;1.35;;;21.30;90.70;;;;;;5052967;28;20021;-78
2021/08/21 08:30:17;;;;;;;2.53;1.60;;;21.40;90.60;;;;;;5052831;28;20026;-78
2021/08/21 08:32:43;;;;;;;2.25;1.30;;;21.50;90.60;;;;;;5052533;28;20385;-78
2021/08/21 08:35:09;;;;;;;2.35;1.50;;;21.50;90.60;;;;;;5052566;28;20398;-79
2021/08/21 08:37:35;;;;;;;1.73;1.27;;;21.60;90.60;;;;;;5053221;28;20025;-78
2021/08/21 08:40:00;;;;;;;1.88;1.48;;;21.60;90.50;;;;;;5068260;28;20029;-77
2021/08/21 08:42:26;;;;;;;1.27;1.17;;;21.70;90.60;;;;;;5052738;28;20071;-77
2021/08/21 08:44:52;;;;;;;1.80;1.30;;;21.80;90.50;;;;;;5052485;28;20156;-78
2021/08/21 08:47:18;;;;;;;1.40;1.20;;;21.90;90.50;;;;;;5052350;28;20083;-77
2021/08/21 08:49:46;;;;;;;1.65;1.23;;;21.90;90.40;;;;;;5052653;28;20035;-78
2021/08/21 08:52:13;;;;;;;2.28;1.77;;;21.90;90.40;;;;;;5052674;28;20021;-78
2021/08/21 08:54:39;;;;;;;2.50;1.48;;;21.80;90.50;;;;;;5052646;28;20037;-78
2021/08/21 08:57:04;;;;;;;1.48;1.23;;;21.80;90.60;;;;;;5052441;28;20386;-78
2021/08/21 08:59:32;;;;;;;2.28;1.98;;;21.90;90.60;;;;;;5053125;28;20104;-78
2021/08/21 09:01:57;;;;;;;2.10;1.63;;;21.90;90.50;;;;;;5055773;28;20159;-78
2021/08/21 09:04:24;;;;;;;2.80;1.77;;;22.00;90.50;;;;;;5071516;28;20111;-78
2021/08/21 09:06:51;;;;;;;3.13;2.20;;;22.00;90.40;;;;;;5055975;28;20025;-78
2021/08/21 09:09:19;;;;;;;2.50;1.80;;;22.10;90.40;;;;;;5056072;28;20462;-78
2021/08/21 09:11:49;;;;;;;1.38;1.25;;;22.10;90.40;;;;;;5071374;28;20029;-80
2021/08/21 09:14:31;;;;;;;2.17;1.20;;;22.10;90.50;;;;;;5055856;28;20047;-80
2021/08/21 09:17:17;;;;;;;2.03;1.83;;;22.00;90.60;;;;;;5055360;28;20035;-80
2021/08/21 09:19:44;;;;;;;2.00;1.52;;;22.00;90.60;;;;;;5055847;28;20025;-80
2021/08/21 09:22:11;;;;;;;2.05;1.60;;;22.00;90.70;;;;;;5054473;28;20095;-79
2021/08/21 09:24:39;;;;;;;2.80;1.73;;;22.10;90.60;;;;;;5055751;28;20453;-79
2021/08/21 09:27:25;;;;;;;4.15;2.08;;;22.20;90.50;;;;;;5055732;28;20048;-78
2021/08/21 09:30:26;;;;;;;2.13;1.58;;;22.30;90.50;;;;;;5055104;28;20029;-79
2021/08/21 09:33:00;;;;;;;2.67;1.90;;;22.50;90.40;;;;;;5033556;28;20033;-76
2021/08/21 09:35:33;;;;;;;2.15;1.63;;;22.50;90.40;;;;;;5055568;28;20037;-77
2021/08/21 09:37:59;;;;;;;2.63;1.63;;;22.70;90.30;;;;;;5055415;28;20025;-75
2021/08/21 09:40:34;;;;;;;2.88;1.80;;;22.70;90.30;;;;;;5055293;28;20100;-78
2021/08/21 09:43:01;;;;;;;3.30;1.67;;;22.80;90.20;;;;;;5055396;28;20031;-78
2021/08/21 09:45:27;;;;;;;3.17;1.70;;;22.80;90.20;;;;;;5054950;28;20599;-78
2021/08/21 09:48:01;;;;;;;2.30;1.83;;;22.80;90.30;;;;;;5055163;28;20170;-76
2021/08/21 09:50:30;;;;;;;2.85;2.10;;;22.80;90.30;;;;;;5053999;28;20461;-78
2021/08/21 09:53:02;;;;;;;2.50;1.85;;;22.70;90.40;;;;;;5055250;28;20021;-78
2021/08/21 09:55:29;;;;;;;1.48;1.17;;;22.70;90.50;;;;;;5055255;28;20033;-78
2021/08/21 09:58:17;;;;;;;2.72;1.70;;;22.70;90.50;;;;;;5054963;28;20025;-76
2021/08/21 10:00:43;;;;;;;2.45;1.63;;;22.70;90.50;;;;;;5054579;28;20029;-78
2021/08/21 10:03:09;;;;;;;2.30;1.63;;;22.70;90.50;;;;;;5055072;28;20092;-78
2021/08/21 10:05:35;;;;;;;2.15;1.58;;;22.70;90.40;;;;;;5053642;28;20115;-80
2021/08/21 10:08:05;;;;;;;1.83;1.50;;;22.80;90.40;;;;;;5054945;28;20025;-78
2021/08/21 10:10:36;;;;;;;1.75;1.20;;;22.80;90.40;;;;;;5053075;28;20025;-75
2021/08/21 10:13:24;;;;;;;1.30;1.20;;;22.90;90.30;;;;;;5054977;28;20043;-77
2021/08/21 10:15:50;;;;;;;1.65;1.17;;;23.00;90.30;;;;;;5054768;28;20389;-80
2021/08/21 10:18:18;;;;;;;2.38;1.42;;;23.10;90.20;;;;;;5054555;28;20562;-79
2021/08/21 10:20:44;;;;;;;1.95;1.17;;;23.10;90.10;;;;;;5054445;28;20052;-79
2021/08/21 10:23:12;;;;;;;3.42;1.85;;;23.10;90.10;;;;;;5054628;28;20052;-78
2021/08/21 10:25:52;;;;;;;1.97;1.63;;;23.20;90.20;;;;;;5054519;28;20049;-76
2021/08/21 10:28:18;;;;;;;1.50;1.40;;;23.20;90.10;;;;;;5054195;28;20263;-79
2021/08/21 10:30:48;;;;;;;1.65;1.17;;;23.10;90.10;;;;;;5054545;28;20536;-79
2021/08/21 10:33:14;;;;;;;2.00;1.42;;;23.20;90.10;;;;;;5069765;28;20424;-77
2021/08/21 10:35:47;;;;;;;2.13;1.80;;;23.30;90.10;;;;;;5054262;28;20120;-78
2021/08/21 10:38:32;;;;;;;1.50;1.27;;;23.30;90.00;;;;;;5054314;28;20031;-76
2021/08/21 10:41:26;;;;;;;2.33;1.50;;;23.30;90.10;;;;;;5054333;28;20545;-78
2021/08/21 10:43:54;;;;;;;1.35;1.30;;;23.40;90.10;;;;;;5053607;28;20028;-78
2021/08/21 10:46:31;;;;;;;2.17;1.70;;;23.50;90.00;;;;;;5054309;28;20021;-78
2021/08/21 10:48:59;;;;;;;2.28;1.58;;;23.50;89.80;;;;;;5053969;28;20465;-79
2021/08/21 10:51:42;;;;;;;2.03;1.38;;;23.60;89.90;;;;;;5054120;28;20024;-76
2021/08/21 10:54:25;;;;;;;2.17;1.42;;;23.70;89.80;;;;;;5053979;28;20431;-76
2021/08/21 10:56:55;;;;;;;1.48;1.13;;;23.70;89.70;;;;;;5053459;28;20485;-80
2021/08/21 10:59:53;;;;;;;1.70;1.17;;;23.80;89.80;;;;;;5053848;28;20017;-77
2021/08/21 11:02:31;;;;;;;1.15;1.00;;;23.90;89.60;;;;;;5027844;28;20033;-76
2021/08/21 11:04:57;;;;;;;1.17;1.08;;;24.00;89.50;;;;;;5051197;28;20064;-76
2021/08/21 11:07:32;;;;;;;1.20;0.88;;;23.90;89.50;;;;;;5051270;28;20025;-76
2021/08/21 11:10:14;;;;;;;1.52;1.10;;;24.00;89.60;;;;;;5051033;28;20048;-76
2021/08/21 11:12:42;;;;;;;0.77;0.77;;;24.10;89.50;;;;;;5050510;28;20442;-78
2021/08/21 11:15:33;;;;;;;1.42;1.10;;;24.20;89.30;;;;;;5050570;28;20069;-78
2021/08/21 11:17:59;;;;;;;1.40;1.15;;;24.30;89.10;;;;;;5050580;28;20064;-78
2021/08/21 11:20:29;;;;;;;1.25;1.13;;;24.30;89.20;;;;;;5066183;28;20389;-78
2021/08/21 11:23:06;;;;;;;2.30;1.58;;;24.30;89.00;;;;;;5048835;28;20112;-76
2021/08/21 11:25:34;;;;;;;1.70;1.30;;;24.40;89.20;;;;;;5050468;28;20025;-76
2021/08/21 11:28:06;;;;;;;1.50;1.02;;;24.40;89.20;;;;;;5050194;28;20036;-76
2021/08/21 11:30:33;;;;;;;1.95;1.20;;;24.60;89.00;;;;;;5050923;28;20469;-77
2021/08/21 11:33:00;;;;;;;0.88;0.88;;;24.60;88.70;;;;;;5050836;28;20064;-76
2021/08/21 11:35:32;;;;;;;0.90;0.90;;;24.60;88.80;;;;;;5050570;28;20152;-76
2021/08/21 11:38:00;;;;;;;0.68;0.68;;;24.70;88.70;;;;;;5050263;28;20017;-76
2021/08/21 11:40:36;;;;;;;0.70;0.70;;;24.80;88.70;;;;;;5050040;28;20052;-77
2021/08/21 11:43:04;;;;;;;0.52;0.52;;;24.90;89.20;;;;;;5050422;28;20497;-76
2021/08/21 11:45:31;;;;;;;2.58;1.25;;;25.10;88.80;;;;;;5048507;28;20440;-76
2021/08/21 11:47:57;;;;;;;1.30;1.20;;;25.40;87.70;;;;;;5050221;28;20377;-76
2021/08/21 11:50:39;;;;;;;1.05;0.95;;;25.90;87.60;;;;;;5051684;28;20018;-77
2021/08/21 11:53:10;;;;;;;1.10;1.00;;;26.20;86.50;;;;;;5053131;28;20033;-77
2021/08/21 11:55:38;;;;;;;1.40;1.10;;;26.30;86.90;;;;;;5052708;28;20436;-77
2021/08/21 11:58:05;;;;;;;1.45;1.20;;;26.30;86.30;;;;;;5053351;28;20369;-76
2021/08/21 12:00:36;;;;;;;0.88;0.80;;;26.30;86.30;;;;;;5053120;28;20474;-77
2021/08/21 12:03:05;;;;;;;0.75;0.75;;;26.10;86.40;;;;;;5053112;28;20021;-76
2021/08/21 12:05:34;;;;;;;0.83;0.73;;;25.90;86.80;;;;;;5053007;28;20027;-76
2021/08/21 12:08:14;;;;;;;0.50;0.50;;;25.70;87.10;;;;;;5051766;28;20318;-77
2021/08/21 12:11:03;;;;;;;1.33;0.80;;;25.50;87.50;;;;;;5052759;28;20021;-76
2021/08/21 12:13:32;;;;;;;0.50;0.50;;;25.50;87.40;;;;;;5052664;28;20493;-77
2021/08/21 12:16:05;;;;;;;;;;;25.60;87.50;;;;;;5053253;28;20036;-77
2021/08/21 12:18:34;;;;;;;0.60;0.60;;;25.50;87.70;;;;;;5052737;28;19996;-77
2021/08/21 12:21:00;;;;;;;0.43;0.43;;;25.50;87.50;;;;;;5052993;28;20025;-77
2021/08/21 12:23:26;;;;;;;0.90;0.90;;;25.40;87.50;;;;;;5053063;28;20167;-76
2021/08/21 12:26:01;;;;;;;1.40;0.93;;;25.40;87.50;;;;;;5052578;28;20485;-78
2021/08/21 12:28:37;;;;;;;0.52;0.52;;;25.40;87.40;;;;;;5052805;28;20018;-80
2021/08/21 12:31:05;;;;;;;0.90;0.90;;;25.30;87.40;;;;;;5052749;28;20021;-77
2021/08/21 12:33:36;;;;;;;0.82;0.82;;;25.20;87.30;;;;;;5053412;28;20095;-77
2021/08/21 12:36:14;;;;;;;0.80;0.80;;;25.10;87.40;;;;;;5056636;28;20182;-79
2021/08/21 12:38:41;;;;;;;0.60;0.60;;;25.10;87.50;;;;;;5056282;28;20458;-77
2021/08/21 12:41:14;;;;;;;0.77;0.77;;;25.00;87.50;;;;;;5055077;28;20028;-77
2021/08/21 12:43:41;;;;;;;1.02;0.77;;;25.00;87.50;;;;;;5056575;28;20097;-77
2021/08/21 12:46:18;;;;;;;1.17;1.00;;;24.90;87.60;;;;;;5055145;28;20021;-76
2021/08/21 12:48:44;;;;;;;1.00;0.90;;;24.80;87.50;;;;;;5056404;28;20025;-77
2021/08/21 12:51:09;;;;;;;0.80;0.80;;;24.70;87.70;;;;;;5056436;28;20029;-77